createdAt,value
2018-04-28T00:00:44.734Z,5.05
2018-04-28T00:03:12.665Z,6.20
2018-04-28T00:05:42.607Z,4.43
2018-04-28T00:08:12.162Z,3.95
2018-04-28T00:10:40.796Z,3.87
2018-04-28T00:13:08.598Z,4.53
2018-04-28T00:15:36.703Z,6.53
2018-04-28T00:18:04.674Z,6.22
2018-04-28T00:20:32.824Z,2.43
2018-04-28T00:23:04.459Z,3.53
2018-04-28T00:25:46.513Z,2.70
2018-04-28T00:31:35.416Z,10.17
2018-04-28T00:34:06.822Z,6.17
2018-04-28T00:36:46.221Z,7.10
2018-04-28T00:39:13.798Z,5.30
2018-04-28T00:41:43.227Z,6.90
2018-04-28T00:44:17.395Z,4.80
2018-04-28T00:46:45.782Z,3.03
2018-04-28T00:49:16.987Z,6.30
2018-04-28T00:51:48.366Z,6.60
2018-04-28T00:54:22.713Z,7.77
2018-04-28T01:00:11.243Z,8.63
2018-04-28T01:02:38.847Z,7.73
2018-04-28T01:05:06.422Z,7.53
2018-04-28T01:07:34.121Z,3.80
2018-04-28T01:13:03.502Z,6.33
2018-04-28T01:15:32.857Z,5.60
2018-04-28T01:18:01.103Z,9.17
2018-04-28T01:20:30.357Z,6.15
2018-04-28T01:25:57.636Z,8.90
2018-04-28T01:31:28.271Z,9.73
2018-04-28T01:34:04.728Z,9.30
2018-04-28T01:36:35.026Z,12.20
2018-04-28T01:39:08.346Z,8.93
2018-04-28T01:41:42.300Z,7.87
2018-04-28T01:47:16.413Z,9.23
2018-04-28T01:49:46.745Z,13.43
2018-04-28T01:52:14.314Z,7.93
2018-04-28T01:58:07.193Z,16.43
2018-04-28T02:00:42.484Z,10.90
2018-04-28T02:03:14.954Z,7.73
2018-04-28T02:09:11.729Z,11.30
2018-04-28T02:11:43.956Z,11.12
2018-04-28T02:17:15.261Z,14.13
2018-04-28T02:23:03.450Z,10.00
2018-04-28T02:28:51.854Z,12.63
2018-04-28T02:34:33.922Z,3.90
2018-04-28T02:37:11.354Z,12.60
2018-04-28T02:39:43.579Z,11.87
2018-04-28T02:45:20.264Z,13.23
2018-04-28T02:47:47.878Z,12.17
2018-04-28T02:50:26.605Z,8.20
2018-04-28T02:52:57.381Z,12.43
2018-04-28T02:58:40.702Z,13.47
2018-04-28T03:04:23.859Z,11.13
2018-04-28T03:06:54.161Z,11.55
2018-04-28T03:09:22.483Z,10.23
2018-04-28T03:14:51.563Z,19.60
2018-04-28T03:17:21.942Z,12.70
2018-04-28T03:20:05.147Z,9.90
2018-04-28T03:22:32.699Z,14.57
2018-04-28T03:25:06.771Z,15.10
2018-04-28T03:30:53.548Z,12.50
2018-04-28T03:33:43.848Z,15.80
2018-04-28T03:36:20.183Z,14.43
2018-04-28T03:41:45.614Z,11.63
2018-04-28T03:44:29.892Z,15.23
2018-04-28T03:47:07.374Z,12.07
2018-04-28T03:49:34.971Z,13.40
2018-04-28T03:52:12.220Z,10.97
2018-04-28T03:54:42.501Z,10.85
2018-04-28T04:00:21.403Z,11.03
2018-04-28T04:03:00.882Z,15.13
2018-04-28T04:05:35.268Z,12.53
2018-04-28T04:08:04.683Z,21.43
2018-04-28T04:10:49.821Z,8.57
2018-04-28T04:13:21.271Z,14.63
2018-04-28T04:18:51.145Z,12.13
2018-04-28T04:21:23.532Z,13.50
2018-04-28T04:24:02.984Z,9.73
2018-04-28T04:29:39.821Z,20.13
2018-04-28T04:32:12.105Z,27.60
2018-04-28T04:35:05.343Z,12.20
2018-04-28T04:37:43.959Z,11.20
2018-04-28T04:40:34.066Z,11.38
2018-04-28T04:43:22.297Z,11.93
2018-04-28T04:45:56.770Z,19.23
2018-04-28T04:51:49.850Z,8.67
2018-04-28T04:57:38.225Z,19.83
2018-04-28T05:03:17.585Z,11.57
2018-04-28T05:05:55.694Z,11.97
2018-04-28T05:11:38.171Z,9.77
2018-04-28T05:17:22.194Z,10.20
2018-04-28T05:20:01.547Z,17.30
2018-04-28T05:22:40.528Z,11.37
2018-04-28T05:25:26.734Z,18.43
2018-04-28T05:27:58.441Z,17.77
2018-04-28T05:33:47.640Z,11.87
2018-04-28T05:36:32.148Z,12.47
2018-04-28T05:42:26.971Z,11.93
2018-04-28T05:48:15.866Z,10.57
2018-04-28T05:53:56.157Z,9.97
2018-04-28T05:59:39.013Z,11.33
2018-04-28T06:02:10.267Z,7.63
2018-04-28T06:04:59.388Z,14.40
2018-04-28T06:07:32.901Z,11.20
2018-04-28T06:10:06.579Z,16.37
2018-04-28T06:12:40.503Z,12.03
2018-04-28T06:15:22.239Z,14.50
2018-04-28T06:20:49.633Z,13.90
2018-04-28T06:23:17.189Z,11.10
2018-04-28T06:25:44.801Z,9.73
2018-04-28T06:28:12.389Z,16.97
2018-04-28T06:30:40.248Z,11.90
2018-04-28T06:33:07.890Z,7.80
2018-04-28T06:35:38.613Z,15.20
2018-04-28T06:38:06.618Z,11.30
2018-04-28T06:40:34.452Z,11.03
2018-04-28T06:43:02.104Z,11.77
2018-04-28T06:45:29.661Z,12.27
2018-04-28T06:47:58.780Z,10.40
2018-04-28T06:50:26.355Z,7.27
2018-04-28T06:52:53.932Z,10.33
2018-04-28T06:55:21.485Z,15.27
2018-04-28T06:57:49.122Z,16.83
2018-04-28T07:00:17.167Z,9.90
2018-04-28T07:02:44.798Z,13.27
2018-04-28T07:05:12.375Z,15.27
2018-04-28T07:07:41.372Z,13.57
2018-04-28T07:10:08.977Z,12.30
2018-04-28T07:12:36.632Z,13.57
2018-04-28T07:15:04.183Z,22.58
2018-04-28T07:17:31.843Z,17.15
2018-04-28T07:19:59.415Z,14.33
2018-04-28T07:22:27.062Z,12.40
2018-04-28T07:24:54.593Z,7.33
2018-04-28T07:27:22.172Z,15.73
2018-04-28T07:29:50.945Z,11.57
2018-04-28T07:32:18.776Z,8.20
2018-04-28T07:34:47.294Z,10.30
2018-04-28T07:37:15.650Z,10.83
2018-04-28T07:39:43.230Z,21.60
2018-04-28T07:42:10.784Z,10.80
2018-04-28T07:44:39.378Z,8.10
2018-04-28T07:47:06.937Z,6.68
2018-04-28T07:49:37.617Z,10.80
2018-04-28T07:52:05.165Z,10.70
2018-04-28T07:54:33.693Z,8.70
2018-04-28T07:57:01.222Z,10.87
2018-04-28T07:59:29.423Z,6.87
2018-04-28T08:01:57.004Z,7.20
2018-04-28T08:04:24.569Z,10.93
2018-04-28T08:06:52.685Z,8.20
2018-04-28T08:09:20.380Z,11.47
2018-04-28T08:11:48.197Z,11.87
2018-04-28T08:14:15.860Z,9.33
2018-04-28T08:16:43.558Z,5.37
2018-04-28T08:19:11.094Z,10.73
2018-04-28T08:21:38.665Z,9.60
2018-04-28T08:24:06.568Z,6.87
2018-04-28T08:26:34.585Z,8.43
2018-04-28T08:29:02.050Z,5.83
2018-04-28T08:31:29.682Z,7.53
2018-04-28T08:33:57.204Z,10.23
2018-04-28T08:36:24.752Z,6.27
2018-04-28T08:38:52.360Z,5.37
2018-04-28T08:41:19.909Z,5.70
2018-04-28T08:43:47.516Z,16.17
2018-04-28T08:46:15.092Z,8.93
2018-04-28T08:48:42.666Z,6.78
2018-04-28T08:51:10.222Z,10.10
2018-04-28T08:53:37.922Z,7.17
2018-04-28T08:56:05.584Z,4.93
2018-04-28T08:58:33.201Z,4.50
2018-04-28T09:01:01.634Z,2.93
2018-04-28T09:03:29.152Z,2.55
2018-04-28T09:05:56.880Z,5.17
2018-04-28T09:08:24.435Z,3.67
2018-04-28T09:10:52.536Z,3.40
2018-04-28T09:13:22.286Z,4.57
2018-04-28T09:15:50.359Z,3.03
2018-04-28T09:18:17.990Z,2.57
2018-04-28T09:20:45.746Z,5.20
2018-04-28T09:23:13.296Z,4.10
2018-04-28T09:25:41.421Z,5.27
2018-04-28T09:28:08.977Z,4.23
2018-04-28T09:30:36.615Z,7.07
2018-04-28T09:33:04.221Z,3.60
2018-04-28T09:35:31.785Z,3.60
2018-04-28T09:37:59.313Z,5.23
2018-04-28T09:40:26.866Z,1.40
2018-04-28T09:42:54.394Z,6.00
2018-04-28T09:45:21.967Z,5.50
2018-04-28T09:47:50.349Z,1.97
2018-04-28T09:50:18.080Z,4.13
2018-04-28T09:52:45.650Z,2.37
2018-04-28T09:55:13.254Z,2.03
2018-04-28T09:57:40.830Z,5.30
2018-04-28T10:00:23.070Z,1.53
2018-04-28T10:02:50.687Z,2.17
2018-04-28T10:05:18.363Z,1.40
2018-04-28T10:07:46.260Z,4.00
2018-04-28T10:10:14.592Z,3.83
2018-04-28T10:12:42.194Z,3.07
2018-04-28T10:15:09.795Z,3.33
2018-04-28T10:17:37.429Z,2.47
2018-04-28T10:20:05.002Z,2.83
2018-04-28T10:22:32.527Z,4.73
2018-04-28T10:25:01.067Z,3.53
2018-04-28T10:27:29.853Z,2.90
2018-04-28T10:29:57.540Z,4.93
2018-04-28T10:32:25.105Z,2.37
2018-04-28T10:34:52.667Z,3.67
2018-04-28T10:37:20.213Z,1.80
2018-04-28T10:39:47.866Z,3.43
2018-04-28T10:42:15.418Z,3.87
2018-04-28T10:44:42.997Z,11.43
2018-04-28T10:47:10.525Z,6.22
2018-04-28T10:49:41.033Z,7.27
2018-04-28T10:52:11.891Z,4.43
2018-04-28T10:54:43.385Z,5.07
2018-04-28T10:57:11.349Z,4.35
2018-04-28T10:59:38.906Z,2.78
2018-04-28T11:02:06.486Z,4.53
2018-04-28T11:04:34.005Z,1.90
2018-04-28T11:07:05.218Z,1.80
2018-04-28T11:09:36.066Z,2.57
2018-04-28T11:12:07.615Z,6.07
2018-04-28T11:14:37.879Z,12.17
2018-04-28T11:17:09.577Z,3.28
2018-04-28T11:19:40.472Z,3.13
2018-04-28T11:22:12.312Z,3.70
2018-04-28T11:24:42.657Z,5.07
2018-04-28T11:27:12.019Z,4.57
2018-04-28T11:29:42.921Z,3.43
2018-04-28T11:32:15.347Z,5.45
2018-04-28T11:34:46.732Z,1.95
2018-04-28T11:37:19.849Z,1.80
2018-04-28T11:39:52.023Z,9.03
2018-04-28T11:42:25.811Z,4.47
2018-04-28T11:44:57.543Z,1.80
2018-04-28T11:47:27.424Z,4.68
2018-04-28T11:49:56.832Z,5.23
2018-04-28T11:52:28.636Z,10.17
2018-04-28T11:55:00.290Z,3.20
2018-04-28T11:57:32.192Z,3.37
2018-04-28T12:00:05.664Z,3.45
2018-04-28T12:02:35.360Z,5.00
2018-04-28T12:05:07.698Z,6.97
2018-04-28T12:07:39.386Z,2.55
2018-04-28T12:10:11.099Z,3.20
2018-04-28T12:12:43.483Z,5.23
2018-04-28T12:15:12.948Z,4.67
2018-04-28T12:17:42.612Z,4.90
2018-04-28T12:20:13.402Z,2.97
2018-04-28T12:22:45.886Z,4.65
2018-04-28T12:27:55.260Z,3.20
2018-04-28T12:30:30.564Z,3.07
2018-04-28T12:33:00.690Z,5.73
2018-04-28T12:35:31.076Z,8.00
2018-04-28T12:38:05.697Z,4.07
2018-04-28T12:40:34.772Z,4.27
2018-04-28T12:43:02.398Z,6.90
2018-04-28T12:45:29.980Z,3.53
2018-04-28T12:47:57.534Z,3.73
2018-04-28T12:50:25.200Z,3.87
2018-04-28T12:52:52.736Z,3.97
2018-04-28T12:55:20.516Z,6.30
2018-04-28T12:57:48.041Z,9.90
2018-04-28T13:00:16.148Z,2.30
2018-04-28T13:02:44.161Z,3.40
2018-04-28T13:05:11.780Z,3.87
2018-04-28T13:07:39.301Z,6.00
2018-04-28T13:10:06.854Z,4.63
2018-04-28T13:12:34.379Z,3.20
2018-04-28T13:15:02.305Z,3.92
2018-04-28T13:17:29.919Z,3.70
2018-04-28T13:19:57.556Z,2.90
2018-04-28T13:22:25.214Z,3.62
2018-04-28T13:24:52.974Z,4.37
2018-04-28T13:27:20.632Z,4.23
2018-04-28T13:29:48.245Z,2.70
2018-04-28T13:32:16.076Z,5.40
2018-04-28T13:34:43.626Z,7.45
2018-04-28T13:37:11.177Z,3.87
2018-04-28T13:39:38.726Z,5.00
2018-04-28T13:42:06.283Z,5.15
2018-04-28T13:44:33.836Z,8.63
2018-04-28T13:47:02.337Z,5.68
2018-04-28T13:49:29.996Z,7.13
2018-04-28T13:51:57.538Z,6.67
2018-04-28T13:54:25.513Z,2.67
2018-04-28T13:56:53.092Z,3.57
2018-04-28T13:59:20.673Z,17.13
2018-04-28T14:01:49.024Z,7.13
2018-04-28T14:04:16.602Z,4.50
2018-04-28T14:06:44.176Z,4.60
2018-04-28T14:09:11.810Z,7.50
2018-04-28T14:11:40.311Z,4.62
2018-04-28T14:14:07.860Z,4.18
2018-04-28T14:16:35.517Z,6.90
2018-04-28T14:19:03.787Z,4.73
2018-04-28T14:21:31.546Z,3.10
2018-04-28T14:23:59.220Z,4.77
2018-04-28T14:26:26.773Z,3.78
2018-04-28T14:28:54.328Z,4.77
2018-04-28T14:31:22.600Z,6.43
2018-04-28T14:33:50.128Z,4.72
2018-04-28T14:36:17.732Z,4.47
2018-04-28T14:41:28.930Z,4.17
2018-04-28T14:43:56.561Z,7.83
2018-04-28T14:46:25.215Z,4.27
2018-04-28T14:48:52.841Z,3.87
2018-04-28T14:51:20.399Z,3.13
2018-04-28T14:53:48.395Z,7.87
2018-04-28T14:56:15.927Z,2.93
2018-04-28T14:58:43.526Z,5.90
2018-04-28T15:01:11.669Z,5.60
2018-04-28T15:03:39.306Z,4.53
2018-04-28T15:06:06.864Z,4.23
2018-04-28T15:08:34.713Z,3.87
2018-04-28T15:11:02.264Z,5.97
2018-04-28T15:13:29.861Z,5.03
2018-04-28T15:15:57.395Z,2.03
2018-04-28T15:18:24.992Z,7.83
2018-04-28T15:20:52.528Z,7.07
2018-04-28T15:23:20.089Z,4.43
2018-04-28T15:25:47.623Z,3.55
2018-04-28T15:28:15.242Z,4.70
2018-04-28T15:30:42.852Z,10.57
2018-04-28T15:33:10.406Z,4.47
2018-04-28T15:35:37.934Z,5.53
2018-04-28T15:38:05.513Z,8.43
2018-04-28T15:40:33.041Z,3.17
2018-04-28T15:43:00.618Z,3.62
2018-04-28T15:45:28.238Z,5.77
2018-04-28T15:47:55.902Z,10.03
2018-04-28T15:50:23.423Z,4.87
2018-04-28T15:52:50.953Z,15.10
2018-04-28T15:55:18.604Z,15.37
2018-04-28T15:57:46.107Z,7.00
2018-04-28T16:00:14.053Z,6.10
2018-04-28T16:02:41.806Z,3.70
2018-04-28T16:05:09.417Z,5.60
2018-04-28T16:07:37.512Z,5.07
2018-04-28T16:10:05.362Z,6.25
2018-04-28T16:12:33.020Z,8.20
2018-04-28T16:15:00.770Z,7.83
2018-04-28T16:17:28.295Z,4.90
2018-04-28T16:19:55.885Z,4.70
2018-04-28T16:22:23.402Z,5.83
2018-04-28T16:24:51.031Z,5.30
2018-04-28T16:27:18.619Z,4.60
2018-04-28T16:29:46.137Z,6.28
2018-04-28T16:32:13.709Z,5.67
2018-04-28T16:34:41.238Z,7.43
2018-04-28T16:37:09.104Z,4.57
2018-04-28T16:39:36.619Z,6.43
2018-04-28T16:42:04.245Z,3.83
2018-04-28T16:44:31.833Z,6.27
2018-04-28T16:46:59.379Z,4.30
2018-04-28T16:49:26.909Z,6.70
2018-04-28T16:51:54.582Z,4.12
2018-04-28T16:54:22.151Z,4.47
2018-04-28T16:56:49.733Z,4.53
2018-04-28T16:59:17.261Z,3.75
2018-04-28T17:01:44.838Z,4.90
2018-04-28T17:04:12.378Z,6.03
2018-04-28T17:06:39.907Z,5.73
2018-04-28T17:09:07.496Z,5.73
2018-04-28T17:11:35.018Z,4.55
2018-04-28T17:14:02.574Z,4.70
2018-04-28T17:16:30.125Z,4.60
2018-04-28T17:18:57.734Z,5.47
2018-04-28T17:21:25.257Z,7.13
2018-04-28T17:23:52.806Z,7.87
2018-04-28T17:26:20.334Z,8.13
2018-04-28T17:28:47.982Z,6.80
2018-04-28T17:31:15.539Z,9.23
2018-04-28T17:33:43.194Z,5.53
2018-04-28T17:36:11.046Z,9.67
2018-04-28T17:38:38.603Z,7.17
2018-04-28T17:41:07.199Z,6.78
2018-04-28T17:43:34.763Z,6.80
2018-04-28T17:46:02.325Z,7.13
2018-04-28T17:48:29.854Z,6.67
2018-04-28T17:50:57.451Z,8.70
2018-04-28T17:53:24.981Z,8.37
2018-04-28T17:55:52.537Z,6.80
2018-04-28T17:58:20.068Z,7.63
2018-04-28T18:00:47.618Z,4.00
2018-04-28T18:03:15.237Z,8.13
2018-04-28T18:05:42.771Z,5.33
2018-04-28T18:08:10.368Z,7.63
2018-04-28T18:10:37.902Z,6.23
2018-04-28T18:13:05.450Z,7.17
2018-04-28T18:15:32.978Z,5.53
2018-04-28T18:18:00.532Z,5.50
2018-04-28T18:20:28.083Z,4.93
2018-04-28T18:22:55.636Z,8.57
2018-04-28T18:25:23.284Z,8.47
2018-04-28T18:27:50.844Z,6.97
2018-04-28T18:30:18.369Z,4.00
2018-04-28T18:32:45.948Z,4.33
2018-04-28T18:35:13.474Z,10.23
2018-04-28T18:37:41.021Z,4.93
2018-04-28T18:40:08.631Z,7.13
2018-04-28T18:42:36.153Z,13.03
2018-04-28T18:45:03.733Z,20.50
2018-04-28T18:47:31.286Z,13.53
2018-04-28T18:49:58.866Z,15.17
2018-04-28T18:52:26.412Z,8.37
2018-04-28T18:54:53.994Z,8.00
2018-04-28T18:57:21.518Z,7.07
2018-04-28T18:59:49.081Z,7.70
2018-04-28T19:02:16.621Z,8.00
2018-04-28T19:04:44.194Z,6.50
2018-04-28T19:07:11.721Z,5.50
2018-04-28T19:09:39.281Z,8.17
2018-04-28T19:12:07.831Z,10.23
2018-04-28T19:14:35.485Z,7.97
2018-04-28T19:17:03.011Z,4.97
2018-04-28T19:19:30.588Z,5.37
2018-04-28T19:21:58.470Z,5.20
2018-04-28T19:24:25.994Z,4.83
2018-04-28T19:26:53.598Z,8.00
2018-04-28T19:29:21.599Z,5.80
2018-04-28T19:31:49.219Z,8.45
2018-04-28T19:34:16.851Z,5.90
2018-04-28T19:36:44.754Z,5.70
2018-04-28T19:39:12.408Z,4.37
2018-04-28T19:41:41.204Z,5.00
2018-04-28T19:44:08.829Z,6.77
2018-04-28T19:46:36.398Z,6.17
2018-04-28T19:49:03.914Z,11.63
2018-04-28T19:51:31.538Z,7.27
2018-04-28T19:53:59.097Z,6.77
2018-04-28T19:56:26.665Z,8.75
2018-04-28T19:58:54.247Z,7.53
2018-04-28T20:01:21.878Z,8.63
2018-04-28T20:03:49.430Z,9.90
2018-04-28T20:06:16.995Z,9.88
2018-04-28T20:08:44.558Z,12.88
2018-04-28T20:11:12.435Z,8.70
2018-04-28T20:13:40.114Z,8.07
2018-04-28T20:16:07.687Z,10.13
2018-04-28T20:18:35.242Z,9.17
2018-04-28T20:21:02.770Z,10.43
2018-04-28T20:23:42.162Z,10.73
2018-04-28T20:26:09.796Z,9.23
2018-04-28T20:28:37.826Z,7.87
2018-04-28T20:31:05.409Z,8.30
2018-04-28T20:33:32.973Z,8.97
2018-04-28T20:36:00.509Z,10.43
2018-04-28T20:38:28.088Z,8.40
2018-04-28T20:40:57.983Z,7.75
2018-04-28T20:43:28.035Z,5.80
2018-04-28T20:45:57.887Z,8.27
2018-04-28T20:48:27.119Z,6.27
2018-04-28T20:50:55.619Z,7.73
2018-04-28T20:53:24.140Z,6.03
2018-04-28T20:55:51.701Z,6.80
2018-04-28T20:58:19.297Z,7.73
2018-04-28T21:00:46.854Z,6.07
2018-04-28T21:03:14.383Z,9.03
2018-04-28T21:05:41.933Z,5.67
2018-04-28T21:08:09.538Z,7.33
2018-04-28T21:10:38.901Z,7.65
2018-04-28T21:13:07.439Z,8.60
2018-04-28T21:15:36.665Z,6.60
2018-04-28T21:18:04.390Z,6.70
2018-04-28T21:20:32.126Z,13.23
2018-04-28T21:23:00.172Z,9.00
2018-04-28T21:25:28.604Z,8.73
2018-04-28T21:27:57.826Z,6.83
2018-04-28T21:30:25.653Z,9.00
2018-04-28T21:32:53.422Z,8.03
2018-04-28T21:35:22.456Z,9.37
2018-04-28T21:37:50.952Z,8.87
2018-04-28T21:40:18.668Z,11.20
2018-04-28T21:42:46.294Z,7.43
2018-04-28T21:45:13.817Z,10.47
2018-04-28T21:47:45.166Z,7.50
2018-04-28T21:50:16.878Z,8.73
2018-04-28T21:52:46.454Z,9.37
2018-04-28T21:55:18.024Z,10.33
2018-04-28T21:57:48.980Z,10.13
2018-04-28T22:00:16.603Z,12.83
2018-04-28T22:02:44.134Z,13.13
2018-04-28T22:05:12.438Z,8.17
2018-04-28T22:07:41.589Z,8.20
2018-04-28T22:10:11.809Z,10.07
2018-04-28T22:12:39.765Z,11.33
2018-04-28T22:15:10.316Z,9.67
2018-04-28T22:17:40.064Z,12.30
2018-04-28T22:20:09.279Z,10.88
2018-04-28T22:22:38.222Z,10.73
2018-04-28T22:25:06.129Z,8.73
2018-04-28T22:27:35.402Z,9.47
2018-04-28T22:30:04.360Z,7.87
2018-04-28T22:32:32.762Z,9.57
2018-04-28T22:35:00.375Z,11.03
2018-04-28T22:37:28.416Z,8.57
2018-04-28T22:39:56.071Z,9.50
2018-04-28T22:42:23.625Z,7.70
2018-04-28T22:44:51.220Z,10.10
2018-04-28T22:47:18.805Z,9.90
2018-04-28T22:49:46.327Z,8.10
2018-04-28T22:52:13.965Z,7.67
2018-04-28T22:54:41.482Z,13.27
2018-04-28T22:57:09.864Z,6.28
2018-04-28T22:59:38.050Z,6.57
2018-04-28T23:02:05.639Z,7.87
2018-04-28T23:04:33.171Z,5.67
2018-04-28T23:07:00.793Z,6.07
2018-04-28T23:09:28.349Z,5.97
2018-04-28T23:11:55.928Z,6.85
2018-04-28T23:14:23.451Z,7.47
2018-04-28T23:16:51.002Z,6.45
2018-04-28T23:19:18.583Z,8.45
2018-04-28T23:21:46.106Z,4.77
2018-04-28T23:24:13.663Z,4.93
2018-04-28T23:26:41.305Z,5.87
2018-04-28T23:29:08.863Z,5.53
2018-04-28T23:31:36.385Z,5.30
2018-04-28T23:34:03.970Z,6.83
2018-04-28T23:36:31.520Z,5.50
2018-04-28T23:38:59.073Z,7.97
2018-04-28T23:41:26.608Z,7.53
2018-04-28T23:43:54.178Z,9.50
2018-04-28T23:46:21.702Z,7.53
2018-04-28T23:48:49.332Z,7.47
2018-04-28T23:51:16.861Z,7.47
2018-04-28T23:53:44.434Z,7.50
2018-04-28T23:56:11.965Z,6.10
2018-04-28T23:58:40.217Z,7.75
